createdAt,value
2023-05-18T00:02:15.882Z,7.20
2023-05-18T00:04:44.194Z,7.10
2023-05-18T00:07:14.650Z,7.10
2023-05-18T00:09:42.595Z,7.10
2023-05-18T00:12:10.698Z,7.00
2023-05-18T00:14:38.676Z,7.00
2023-05-18T00:17:06.784Z,7.00
2023-05-18T00:19:34.547Z,6.90
2023-05-18T00:22:02.380Z,6.90
2023-05-18T00:24:31.495Z,6.90
2023-05-18T00:26:59.263Z,6.90
2023-05-18T00:29:27.039Z,6.90
2023-05-18T00:31:54.873Z,6.80
2023-05-18T00:34:22.704Z,6.80
2023-05-18T00:36:50.488Z,6.70
2023-05-18T00:39:18.288Z,6.70
2023-05-18T00:41:47.415Z,6.70
2023-05-18T00:44:15.386Z,6.60
2023-05-18T00:46:44.159Z,6.50
2023-05-18T00:49:12.326Z,6.50
2023-05-18T00:51:40.309Z,6.50
2023-05-18T00:54:08.272Z,6.40
2023-05-18T00:56:41.569Z,6.40
2023-05-18T00:59:11.676Z,6.30
2023-05-18T01:01:43.575Z,6.30
2023-05-18T01:07:09.924Z,6.30
2023-05-18T01:09:38.227Z,6.20
2023-05-18T01:12:13.882Z,6.20
2023-05-18T01:14:49.788Z,6.20
2023-05-18T01:17:33.525Z,6.20
2023-05-18T01:20:26.535Z,6.10
2023-05-18T01:23:13.902Z,6.20
2023-05-18T01:25:49.435Z,6.10
2023-05-18T01:28:21.406Z,6.10
2023-05-18T01:30:49.543Z,6.10
2023-05-18T01:33:17.336Z,6.10
2023-05-18T01:35:48.087Z,6.10
2023-05-18T01:38:17.930Z,6.10
2023-05-18T01:40:53.671Z,6.10
2023-05-18T01:43:28.857Z,6.10
2023-05-18T01:46:02.889Z,6.00
2023-05-18T01:48:31.619Z,6.00
2023-05-18T01:51:00.524Z,5.90
2023-05-18T01:53:35.232Z,5.90
2023-05-18T01:56:06.633Z,5.80
2023-05-18T01:58:37.100Z,5.80
2023-05-18T02:01:05.849Z,5.70
2023-05-18T02:03:33.993Z,5.70
2023-05-18T02:06:01.843Z,5.70
2023-05-18T02:08:29.600Z,5.70
2023-05-18T02:10:57.383Z,5.60
2023-05-18T02:13:25.145Z,5.60
2023-05-18T02:15:54.322Z,5.60
2023-05-18T02:18:22.457Z,5.60
2023-05-18T02:20:51.056Z,5.50
2023-05-18T02:23:18.827Z,5.50
2023-05-18T02:25:46.680Z,5.50
2023-05-18T02:28:14.446Z,5.50
2023-05-18T02:30:42.284Z,5.50
2023-05-18T02:33:11.478Z,5.40
2023-05-18T02:35:40.856Z,5.40
2023-05-18T02:38:08.608Z,5.40
2023-05-18T02:40:36.493Z,5.40
2023-05-18T02:43:04.255Z,5.30
2023-05-18T02:45:32.181Z,5.30
2023-05-18T02:48:00.211Z,5.30
2023-05-18T02:50:29.347Z,5.30
2023-05-18T02:52:57.160Z,5.20
2023-05-18T02:55:24.947Z,5.20
2023-05-18T02:57:56.959Z,5.10
2023-05-18T03:00:24.982Z,5.10
2023-05-18T03:02:53.626Z,5.10
2023-05-18T03:05:23.730Z,5.10
2023-05-18T03:07:53.087Z,5.00
2023-05-18T03:10:21.490Z,5.00
2023-05-18T03:12:49.936Z,5.00
2023-05-18T03:15:17.702Z,5.00
2023-05-18T03:17:45.607Z,4.90
2023-05-18T03:20:14.746Z,4.90
2023-05-18T03:22:42.591Z,4.90
2023-05-18T03:25:12.097Z,4.90
2023-05-18T03:27:39.867Z,4.90
2023-05-18T03:30:09.400Z,4.90
2023-05-18T03:32:37.800Z,4.80
2023-05-18T03:35:06.376Z,4.80
2023-05-18T03:37:34.142Z,4.80
2023-05-18T03:40:12.159Z,4.80
2023-05-18T03:42:39.991Z,4.70
2023-05-18T03:45:09.191Z,4.70
2023-05-18T03:47:37.185Z,4.60
2023-05-18T03:50:05.992Z,4.60
2023-05-18T03:52:34.092Z,4.60
2023-05-18T03:55:02.505Z,4.50
2023-05-18T03:57:33.089Z,4.50
2023-05-18T04:00:00.873Z,4.50
2023-05-18T04:02:28.787Z,4.50
2023-05-18T04:04:57.933Z,4.50
2023-05-18T04:07:25.748Z,4.50
2023-05-18T04:09:56.755Z,4.50
2023-05-18T04:12:24.640Z,4.50
2023-05-18T04:14:54.074Z,4.50
2023-05-18T04:17:22.845Z,4.50
2023-05-18T04:19:51.148Z,4.50
2023-05-18T04:22:19.172Z,4.60
2023-05-18T04:24:47.454Z,4.60
2023-05-18T04:27:16.082Z,4.60
2023-05-18T04:29:44.155Z,4.70
2023-05-18T04:32:13.307Z,4.70
2023-05-18T04:34:42.480Z,4.80
2023-05-18T04:37:10.547Z,4.80
2023-05-18T04:39:39.514Z,4.80
2023-05-18T04:42:07.902Z,4.90
2023-05-18T04:44:36.511Z,4.90
2023-05-18T04:47:04.393Z,4.90
2023-05-18T04:49:33.510Z,5.00
2023-05-18T04:52:01.466Z,5.00
2023-05-18T04:54:31.817Z,5.10
2023-05-18T04:57:02.069Z,5.10
2023-05-18T04:59:29.903Z,5.20
2023-05-18T05:01:57.829Z,5.20
2023-05-18T05:04:25.707Z,5.30
2023-05-18T05:06:54.876Z,5.30
2023-05-18T05:09:22.838Z,5.40
2023-05-18T05:11:50.640Z,5.40
2023-05-18T05:14:18.475Z,5.50
2023-05-18T05:16:46.227Z,5.60
2023-05-18T05:19:14.111Z,5.60
2023-05-18T05:21:41.968Z,5.70
2023-05-18T05:24:11.115Z,5.80
2023-05-18T05:26:38.887Z,5.90
2023-05-18T05:29:06.630Z,6.00
2023-05-18T05:31:34.688Z,6.10
2023-05-18T05:34:02.620Z,6.10
2023-05-18T05:36:31.762Z,6.20
2023-05-18T05:38:59.548Z,6.30
2023-05-18T05:41:30.007Z,6.40
2023-05-18T05:43:58.887Z,6.50
2023-05-18T05:46:26.784Z,6.50
2023-05-18T05:48:54.641Z,6.60
2023-05-18T05:51:22.470Z,6.70
2023-05-18T05:53:50.262Z,6.80
2023-05-18T05:56:18.057Z,6.90
2023-05-18T05:58:47.162Z,6.90
2023-05-18T06:01:14.959Z,7.00
2023-05-18T06:03:45.077Z,7.10
2023-05-18T06:06:14.024Z,7.20
2023-05-18T06:08:41.913Z,7.30
2023-05-18T06:11:11.486Z,7.40
2023-05-18T06:13:39.478Z,7.50
2023-05-18T06:16:08.633Z,7.60
2023-05-18T06:18:36.457Z,7.70
2023-05-18T06:21:04.754Z,7.80
2023-05-18T06:23:32.546Z,7.90
2023-05-18T06:26:00.326Z,7.90
2023-05-18T06:28:28.190Z,8.00
2023-05-18T06:30:55.969Z,8.10
2023-05-18T06:33:25.111Z,8.20
2023-05-18T06:35:52.903Z,8.30
2023-05-18T06:38:20.747Z,8.40
2023-05-18T06:40:48.491Z,8.50
2023-05-18T06:43:16.269Z,8.60
2023-05-18T06:45:44.050Z,8.70
2023-05-18T06:48:11.864Z,8.80
2023-05-18T06:50:41.009Z,8.90
2023-05-18T06:53:08.860Z,9.00
2023-05-18T06:55:37.716Z,9.10
2023-05-18T06:58:05.583Z,9.20
2023-05-18T07:00:34.623Z,9.30
2023-05-18T07:03:03.407Z,9.40
2023-05-18T07:05:31.574Z,9.50
2023-05-18T07:08:01.107Z,9.60
2023-05-18T07:10:28.957Z,9.70
2023-05-18T07:12:57.945Z,9.80
2023-05-18T07:15:26.500Z,9.90
2023-05-18T07:17:54.378Z,10.00
2023-05-18T07:20:24.192Z,10.10
2023-05-18T07:22:54.938Z,10.30
2023-05-18T07:25:24.777Z,10.40
2023-05-18T07:27:54.462Z,10.50
2023-05-18T07:30:22.441Z,10.70
2023-05-18T07:32:51.305Z,10.80
2023-05-18T07:35:20.195Z,10.90
2023-05-18T07:37:48.024Z,11.10
2023-05-18T07:40:16.347Z,11.20
2023-05-18T07:42:45.812Z,11.30
2023-05-18T07:45:14.242Z,11.40
2023-05-18T07:47:42.149Z,11.40
2023-05-18T07:50:10.961Z,11.50
2023-05-18T07:52:38.766Z,11.60
2023-05-18T07:55:07.664Z,11.80
2023-05-18T07:57:36.290Z,11.90
2023-05-18T08:00:08.905Z,12.00
2023-05-18T08:02:36.779Z,12.20
2023-05-18T08:05:04.986Z,12.30
2023-05-18T08:07:33.476Z,12.30
2023-05-18T08:10:01.249Z,12.50
2023-05-18T08:12:29.839Z,12.60
2023-05-18T08:14:57.649Z,12.70
2023-05-18T08:17:26.899Z,12.70
2023-05-18T08:19:55.295Z,12.80
2023-05-18T08:22:23.155Z,12.90
2023-05-18T08:24:51.035Z,12.90
2023-05-18T08:27:19.889Z,12.90
2023-05-18T08:29:47.637Z,13.00
2023-05-18T08:32:15.775Z,13.10
2023-05-18T08:34:44.968Z,13.20
2023-05-18T08:37:12.739Z,13.10
2023-05-18T08:39:40.499Z,13.10
2023-05-18T08:42:17.251Z,13.20
2023-05-18T08:44:50.651Z,13.40
2023-05-18T08:47:19.359Z,13.50
2023-05-18T08:49:51.271Z,13.70
2023-05-18T08:52:23.119Z,13.80
2023-05-18T08:54:52.474Z,13.80
2023-05-18T08:57:23.091Z,13.90
2023-05-18T08:59:53.932Z,14.00
2023-05-18T09:02:21.858Z,14.00
2023-05-18T09:04:51.317Z,14.00
2023-05-18T09:07:20.287Z,14.00
2023-05-18T09:09:49.696Z,14.10
2023-05-18T09:12:19.675Z,14.20
2023-05-18T09:14:47.655Z,14.40
2023-05-18T09:17:15.585Z,14.40
2023-05-18T09:19:44.573Z,14.50
2023-05-18T09:22:15.073Z,14.60
2023-05-18T09:24:43.158Z,14.70
2023-05-18T09:27:10.935Z,14.70
2023-05-18T09:29:52.960Z,14.80
2023-05-18T09:32:20.847Z,14.90
2023-05-18T09:34:49.275Z,15.10
2023-05-18T09:37:22.315Z,15.20
2023-05-18T09:40:00.474Z,15.20
2023-05-18T09:42:29.040Z,15.30
2023-05-18T09:44:56.797Z,15.30
2023-05-18T09:47:24.606Z,15.40
2023-05-18T09:49:52.401Z,15.40
2023-05-18T09:52:21.675Z,15.60
2023-05-18T09:54:58.570Z,15.80
2023-05-18T09:57:26.673Z,15.90
2023-05-18T09:59:57.469Z,16.00
2023-05-18T10:02:26.615Z,16.10
2023-05-18T10:04:54.394Z,16.10
2023-05-18T10:07:23.787Z,16.10
2023-05-18T10:10:03.387Z,16.00
2023-05-18T10:12:31.249Z,15.90
2023-05-18T10:14:59.012Z,15.90
2023-05-18T10:17:28.447Z,16.00
2023-05-18T10:19:57.834Z,16.10
2023-05-18T10:22:28.582Z,16.40
2023-05-18T10:24:58.213Z,16.50
2023-05-18T10:27:29.088Z,16.50
2023-05-18T10:29:59.291Z,16.60
2023-05-18T10:32:30.422Z,16.80
2023-05-18T10:34:58.346Z,16.90
2023-05-18T10:37:30.694Z,17.00
2023-05-18T10:40:00.848Z,17.20
2023-05-18T10:42:30.641Z,17.30
2023-05-18T10:45:01.140Z,17.40
2023-05-18T10:47:29.326Z,17.50
2023-05-18T10:50:00.554Z,17.60
2023-05-18T10:52:31.799Z,17.70
2023-05-18T10:55:00.587Z,17.70
2023-05-18T10:57:35.165Z,17.70
2023-05-18T11:00:03.848Z,17.70
2023-05-18T11:02:32.294Z,17.80
2023-05-18T11:05:00.815Z,17.80
2023-05-18T11:07:31.073Z,18.00
2023-05-18T11:10:02.384Z,18.10
2023-05-18T11:12:33.875Z,18.20
2023-05-18T11:15:02.077Z,18.30
2023-05-18T11:17:31.036Z,18.20
2023-05-18T11:20:18.475Z,18.00
2023-05-18T11:22:52.211Z,17.80
2023-05-18T11:25:43.868Z,17.80
2023-05-18T11:28:13.500Z,17.90
2023-05-18T11:30:51.941Z,18.00
2023-05-18T11:33:25.906Z,18.20
2023-05-18T11:36:03.508Z,18.30
2023-05-18T11:38:51.649Z,18.40
2023-05-18T11:41:33.376Z,18.50
2023-05-18T11:44:15.937Z,18.50
2023-05-18T11:46:53.756Z,18.30
2023-05-18T11:49:23.259Z,18.00
2023-05-18T11:52:16.032Z,17.90
2023-05-18T11:54:47.746Z,17.90
2023-05-18T11:57:18.499Z,18.00
2023-05-18T11:59:47.691Z,18.20
2023-05-18T12:02:21.523Z,18.50
2023-05-18T12:04:51.622Z,18.70
2023-05-18T12:07:20.708Z,18.90
2023-05-18T12:09:50.252Z,19.10
2023-05-18T12:12:20.261Z,19.10
2023-05-18T12:14:55.428Z,19.10
2023-05-18T12:17:24.281Z,19.30
2023-05-18T12:19:52.286Z,19.20
2023-05-18T12:22:20.090Z,19.10
2023-05-18T12:24:53.151Z,19.20
2023-05-18T12:27:22.874Z,19.30
2023-05-18T12:29:51.114Z,19.30
2023-05-18T12:32:18.915Z,19.30
2023-05-18T12:34:46.722Z,19.30
2023-05-18T12:37:14.445Z,19.50
2023-05-18T12:39:42.239Z,19.60
2023-05-18T12:42:12.966Z,19.80
2023-05-18T12:44:42.074Z,19.80
2023-05-18T12:47:11.636Z,19.80
2023-05-18T12:49:40.150Z,19.80
2023-05-18T12:52:12.625Z,19.60
2023-05-18T12:54:59.958Z,19.40
2023-05-18T12:57:30.765Z,19.30
2023-05-18T12:59:59.070Z,19.40
2023-05-18T13:02:34.539Z,19.60
2023-05-18T13:05:03.539Z,19.60
2023-05-18T13:07:31.295Z,19.40
2023-05-18T13:10:02.840Z,19.20
2023-05-18T13:12:40.131Z,19.20
2023-05-18T13:15:15.902Z,19.30
2023-05-18T13:17:56.730Z,19.40
2023-05-18T13:20:24.695Z,19.50
2023-05-18T13:22:52.629Z,19.40
2023-05-18T13:25:20.546Z,19.30
2023-05-18T13:27:50.899Z,19.40
2023-05-18T13:30:19.089Z,19.40
2023-05-18T13:32:47.108Z,19.40
2023-05-18T13:35:15.139Z,19.50
2023-05-18T13:37:43.273Z,19.60
2023-05-18T13:40:13.386Z,19.60
2023-05-18T13:42:41.189Z,19.60
2023-05-18T13:45:13.247Z,19.70
2023-05-18T13:47:43.330Z,19.80
2023-05-18T13:50:11.444Z,19.60
2023-05-18T13:52:39.398Z,19.50
2023-05-18T13:55:10.559Z,19.50
2023-05-18T13:57:39.005Z,19.30
2023-05-18T14:00:11.379Z,19.30
2023-05-18T14:02:40.833Z,19.20
2023-05-18T14:05:09.517Z,19.20
2023-05-18T14:07:37.535Z,19.20
2023-05-18T14:10:06.178Z,19.20
2023-05-18T14:12:34.357Z,19.30
2023-05-18T14:15:02.614Z,19.40
2023-05-18T14:17:30.630Z,19.50
2023-05-18T14:20:00.377Z,19.50
2023-05-18T14:22:28.190Z,19.50
2023-05-18T14:24:55.913Z,19.50
2023-05-18T14:27:24.211Z,19.60
2023-05-18T14:29:52.186Z,19.70
2023-05-18T14:32:21.542Z,19.80
2023-05-18T14:34:51.545Z,19.80
2023-05-18T14:37:20.639Z,19.70
2023-05-18T14:39:48.388Z,19.60
2023-05-18T14:42:16.155Z,19.60
2023-05-18T14:44:43.902Z,19.60
2023-05-18T14:47:11.824Z,19.60
2023-05-18T14:49:39.700Z,19.60
2023-05-18T14:52:07.758Z,19.70
2023-05-18T14:54:36.918Z,19.80
2023-05-18T14:57:04.909Z,20.00
2023-05-18T14:59:32.683Z,20.00
2023-05-18T15:02:00.570Z,20.10
2023-05-18T15:04:28.410Z,20.10
2023-05-18T15:06:56.182Z,20.20
2023-05-18T15:09:26.577Z,20.20
2023-05-18T15:11:56.196Z,20.20
2023-05-18T15:14:23.957Z,20.20
2023-05-18T15:16:51.692Z,20.20
2023-05-18T15:19:19.564Z,20.30
2023-05-18T15:21:48.531Z,20.30
2023-05-18T15:24:16.255Z,20.30
2023-05-18T15:26:44.070Z,20.20
2023-05-18T15:29:13.242Z,20.00
2023-05-18T15:31:41.336Z,19.80
2023-05-18T15:34:09.226Z,19.70
2023-05-18T15:36:38.096Z,19.60
2023-05-18T15:39:05.910Z,19.60
2023-05-18T15:41:34.426Z,19.70
2023-05-18T15:44:02.529Z,19.80
2023-05-18T15:46:35.450Z,19.80
2023-05-18T15:49:03.871Z,19.90
2023-05-18T15:51:31.962Z,19.90
2023-05-18T15:54:00.235Z,20.00
2023-05-18T15:56:28.361Z,20.00
2023-05-18T15:58:56.111Z,20.00
2023-05-18T16:01:24.003Z,20.00
2023-05-18T16:03:53.183Z,20.00
2023-05-18T16:06:21.064Z,20.00
2023-05-18T16:08:48.800Z,20.00
2023-05-18T16:11:16.514Z,20.00
2023-05-18T16:13:44.278Z,20.00
2023-05-18T16:16:14.043Z,20.00
2023-05-18T16:18:42.396Z,19.80
2023-05-18T16:21:11.594Z,19.60
2023-05-18T16:23:39.455Z,19.40
2023-05-18T16:26:07.225Z,19.20
2023-05-18T16:28:35.199Z,19.20
2023-05-18T16:31:07.738Z,19.20
2023-05-18T16:33:35.797Z,19.40
2023-05-18T16:36:04.984Z,19.40
2023-05-18T16:38:35.683Z,19.50
2023-05-18T16:41:03.589Z,19.40
2023-05-18T16:43:31.772Z,19.30
2023-05-18T16:45:59.535Z,19.10
2023-05-18T16:48:27.360Z,18.80
2023-05-18T16:50:55.607Z,18.60
2023-05-18T16:53:23.396Z,18.40
2023-05-18T16:55:52.498Z,18.30
2023-05-18T16:58:20.919Z,18.20
2023-05-18T17:00:48.660Z,18.00
2023-05-18T17:03:17.272Z,18.00
2023-05-18T17:05:45.177Z,17.90
2023-05-18T17:08:13.157Z,17.70
2023-05-18T17:10:40.987Z,17.60
2023-05-18T17:13:10.058Z,17.50
2023-05-18T17:15:38.749Z,17.30
2023-05-18T17:18:06.675Z,17.20
2023-05-18T17:20:34.517Z,17.10
2023-05-18T17:23:02.361Z,16.90
2023-05-18T17:25:30.138Z,16.80
2023-05-18T17:27:58.623Z,16.70
2023-05-18T17:30:27.666Z,16.60
2023-05-18T17:32:55.778Z,16.60
2023-05-18T17:35:23.534Z,16.40
2023-05-18T17:37:51.287Z,16.30
2023-05-18T17:40:19.008Z,16.20
2023-05-18T17:42:46.824Z,16.10
2023-05-18T17:45:14.577Z,16.10
2023-05-18T17:47:43.710Z,16.00
2023-05-18T17:50:12.505Z,15.90
2023-05-18T17:52:40.299Z,15.80
2023-05-18T17:55:09.364Z,15.80
2023-05-18T17:57:44.826Z,15.70
2023-05-18T18:00:13.902Z,15.60
2023-05-18T18:02:43.034Z,15.50
2023-05-18T18:05:11.221Z,15.40
2023-05-18T18:07:39.133Z,15.50
2023-05-18T18:10:08.199Z,15.40
2023-05-18T18:12:35.956Z,15.30
2023-05-18T18:15:03.759Z,15.30
2023-05-18T18:17:31.760Z,15.20
2023-05-18T18:20:00.946Z,15.20
2023-05-18T18:22:28.707Z,15.10
2023-05-18T18:24:56.596Z,15.00
2023-05-18T18:27:24.401Z,14.90
2023-05-18T18:29:52.150Z,14.90
2023-05-18T18:32:19.961Z,14.80
2023-05-18T18:34:47.826Z,14.80
2023-05-18T18:37:16.979Z,14.80
2023-05-18T18:39:44.779Z,14.70
2023-05-18T18:42:12.629Z,14.70
2023-05-18T18:44:40.434Z,14.60
2023-05-18T18:47:08.231Z,14.60
2023-05-18T18:49:36.028Z,14.50
2023-05-18T18:52:03.854Z,14.50
2023-05-18T18:54:32.995Z,14.40
2023-05-18T18:57:01.727Z,14.30
2023-05-18T18:59:29.496Z,14.30
2023-05-18T19:01:57.340Z,14.30
2023-05-18T19:04:25.200Z,14.20
2023-05-18T19:06:53.870Z,14.20
2023-05-18T19:09:21.940Z,14.10
2023-05-18T19:11:51.064Z,14.10
2023-05-18T19:14:18.817Z,14.00
2023-05-18T19:16:46.579Z,13.90
2023-05-18T19:19:14.426Z,13.90
2023-05-18T19:21:44.210Z,13.80
2023-05-18T19:24:11.979Z,13.80
2023-05-18T19:26:39.768Z,13.70
2023-05-18T19:29:08.894Z,13.70
2023-05-18T19:31:37.731Z,13.60
2023-05-18T19:34:05.665Z,13.60
2023-05-18T19:36:33.525Z,13.50
2023-05-18T19:39:01.299Z,13.50
2023-05-18T19:41:29.089Z,13.40
2023-05-18T19:43:56.844Z,13.30
2023-05-18T19:46:26.014Z,13.30
2023-05-18T19:48:56.315Z,13.30
2023-05-18T19:51:24.534Z,13.30
2023-05-18T19:53:52.284Z,13.20
2023-05-18T19:56:20.115Z,13.20
2023-05-18T19:58:47.848Z,13.10
2023-05-18T20:01:17.966Z,13.10
2023-05-18T20:03:47.940Z,13.10
2023-05-18T20:06:16.187Z,13.00
2023-05-18T20:08:44.316Z,13.00
2023-05-18T20:11:12.682Z,13.00
2023-05-18T20:13:42.886Z,12.90
2023-05-18T20:16:10.728Z,12.90
2023-05-18T20:18:40.079Z,12.90
2023-05-18T20:21:09.448Z,12.90
2023-05-18T20:23:37.193Z,12.80
2023-05-18T20:26:05.760Z,12.80
2023-05-18T20:28:33.741Z,12.80
2023-05-18T20:31:01.526Z,12.70
2023-05-18T20:33:30.089Z,12.70
2023-05-18T20:35:59.800Z,12.70
2023-05-18T20:38:28.921Z,12.60
2023-05-18T20:40:57.887Z,12.50
2023-05-18T20:43:25.696Z,12.50
2023-05-18T20:45:53.535Z,12.50
2023-05-18T20:48:26.551Z,12.40
2023-05-18T20:50:54.407Z,12.40
2023-05-18T20:53:22.171Z,12.40
2023-05-18T20:55:54.009Z,12.30
2023-05-18T20:58:22.217Z,12.30
2023-05-18T21:00:50.848Z,12.30
2023-05-18T21:03:19.965Z,12.30
2023-05-18T21:05:49.463Z,12.20
2023-05-18T21:08:17.392Z,12.10
2023-05-18T21:10:45.182Z,12.10
2023-05-18T21:13:14.980Z,12.10
2023-05-18T21:15:42.888Z,12.00
2023-05-18T21:18:10.908Z,12.00
2023-05-18T21:20:38.754Z,11.90
2023-05-18T21:23:06.520Z,11.90
2023-05-18T21:25:34.415Z,11.90
2023-05-18T21:28:02.177Z,11.90
2023-05-18T21:30:32.315Z,11.90
2023-05-18T21:33:00.844Z,11.80
2023-05-18T21:35:29.916Z,11.80
2023-05-18T21:37:57.693Z,11.80
2023-05-18T21:40:25.458Z,11.70
2023-05-18T21:42:53.868Z,11.60
2023-05-18T21:45:22.505Z,11.60
2023-05-18T21:47:51.749Z,11.50
2023-05-18T21:50:19.720Z,11.50
2023-05-18T21:52:47.478Z,11.50
2023-05-18T21:55:15.325Z,11.50
2023-05-18T21:57:43.093Z,11.50
2023-05-18T22:00:13.700Z,11.50
2023-05-18T22:02:41.574Z,11.40
2023-05-18T22:05:11.218Z,11.40
2023-05-18T22:07:39.001Z,11.40
2023-05-18T22:10:07.839Z,11.40
2023-05-18T22:12:37.379Z,11.40
2023-05-18T22:15:05.877Z,11.40
2023-05-18T22:17:34.210Z,11.40
2023-05-18T22:20:02.061Z,11.30
2023-05-18T22:22:31.162Z,11.30
2023-05-18T22:24:59.037Z,11.30
2023-05-18T22:27:26.829Z,11.30
2023-05-18T22:29:54.610Z,11.30
2023-05-18T22:32:22.501Z,11.20
2023-05-18T22:34:50.580Z,11.20
2023-05-18T22:37:18.344Z,11.20
2023-05-18T22:39:47.429Z,11.10
2023-05-18T22:42:15.176Z,11.10
2023-05-18T22:44:42.937Z,11.00
2023-05-18T22:47:11.285Z,11.00
2023-05-18T22:49:40.170Z,11.00
2023-05-18T22:52:08.704Z,11.00
2023-05-18T22:54:36.473Z,11.00
2023-05-18T22:57:05.943Z,10.90
2023-05-18T22:59:33.738Z,10.90
2023-05-18T23:02:01.554Z,10.80
2023-05-18T23:04:29.318Z,10.80
2023-05-18T23:06:57.326Z,10.80
2023-05-18T23:09:26.900Z,10.80
2023-05-18T23:11:55.617Z,10.80
2023-05-18T23:14:25.164Z,10.80
2023-05-18T23:16:53.475Z,10.80
2023-05-18T23:19:21.484Z,10.80
2023-05-18T23:21:49.329Z,10.80
2023-05-18T23:24:17.215Z,10.70
2023-05-18T23:26:45.330Z,10.70
2023-05-18T23:29:13.203Z,10.70
2023-05-18T23:31:42.319Z,10.70
2023-05-18T23:34:10.751Z,10.70
2023-05-18T23:36:42.688Z,10.70
2023-05-18T23:39:11.629Z,10.60
2023-05-18T23:41:40.241Z,10.60
2023-05-18T23:44:08.572Z,10.60
2023-05-18T23:46:36.982Z,10.60
2023-05-18T23:49:06.911Z,10.60
2023-05-18T23:51:36.771Z,10.50
2023-05-18T23:54:07.015Z,10.50
2023-05-18T23:56:35.346Z,10.50
2023-05-18T23:59:03.728Z,10.50
